KIMT

Ford Airport

Airport
ICAO code
KIMT
IATA Code
IMT
Summary
ICAO Region
NAM
ICAO Territory
Location

Iron Mountain, Michigan

Serving
Iron Mountain
Elevation
1182 ft
Coordinates
45° 48' 56" N , 88° 6' 53" W
KCC
Airport CFIT
Altimeter Temperature Error Correction
Airport GND
Aircraft Ground De/Anti Icing
Metar
KIMT 222154Z AUTO VRB03KT 10SM CLR 27/11 A2996 RMK AO2 SLP144 T02720106

Ford Airport is a public use airport located 3 nm west of the central business district of Iron Mountain, a city in Dickinson County, Michigan.

 

Airport map

Aerial View

SKYbrary Partners:

Safety knowledge contributed by: